首页
METAR-TAF:

METAR-TAF

机场 :

伍拉·賴國際機場

丹帕沙, 印度尼西亚

纬度: 08-44-53S, 经度: 115-10-03E, 海拔: 4米

当前天气观测

该预报发布于22分钟前的05:30 UTC
风速10节,风向西转西南
温度 31°C
湿度 66%
气压 1008 hPa
能见度10公里或以上
少量云层高于1700英尺

METAR: WADD 120530Z 25010KT 9999 FEW017 31/24 Q1008 NOSIG

时间: 12:52 (05:52 UTC)

预报

该预报发布于52分钟前的05:00 UTC
预报有效从12日的 06点(UTC)到 13日的 06点(UTC)
风速10节,风向西转西南
能见度10公里或以上
散云层高于1600英尺
短暂存在
从 12日的 18点(UTC)到 12日的 22点(UTC)
风速5节,风向多变

TAF: WADD 120500Z 1206/1306 25010KT 9999 SCT016 TEMPO 1218/1222 VRB05KT

超过4000个机场的气象观测和天气预报(METAR&TAF报告)。

可查询的气象台以黄色和红色小点在地图上表示。

将鼠标移到小点上方,可查看气象台名称。

然后点击查看天气观测和预报。

如需切换地图:点击带黑十字的绿色按钮放大地图;点击带横线的绿色按钮缩小地图;或者点击绿色箭头查看邻近地区的地图。


METAR-TAF: